Collins Bay, Canada
Current Conditions -  °F | °C
As of 9:00 AM on Sunday 23 Nov 2014 (Local Time) from CYGK Reporting Station
Overcast Overcast  
Wind Chill: 40°   Ceiling: 1700
Heat Index: 45°   Visibility: 15mi
Dew Point: 43°   Wind: 8mph
Humidity: 93%   Direction: 230°SW
Pressure: 30.04"   Gusts: NA
Location:  44.23°N, 76.62°W
Report Text: CYGK 231400Z 23007KT 15SM OVC017 07/06 A3004 RMK SC8 SLP173
Loading
Personal Weather Stations






























Interactive Weather Map New forecast layout! Learn more

10-Day Weather Forecast

Advertisements
Track Severe Weather on mobile